Time;durP1;ratioP1;P1;durP2;ratioP2;P2;SDS_P1;SDS_P2;PMS_P1;PMS_P2;Temp;Humidity;BMP_temperature;BMP_pressure;BME280_temperature;BME280_humidity;BME280_pressure;Samples;Min_cycle;Max_cycle;Signal;HPM_P1;HPM_P2
2021/11/26 00:02:23;;;;;;;;;;;;;;;-1.13;100.00;98832.36;1759979;81;21120;-65
2021/11/26 00:04:50;;;;;;;;;;;;;;;-1.14;100.00;98842.56;1760615;81;20065;-65
2021/11/26 00:07:18;;;;;;;;;;;;;;;-1.16;100.00;98836.67;1760455;81;20105;-65
2021/11/26 00:09:46;;;;;;;;;;;;;;;-1.14;100.00;98844.39;1760417;80;20072;-65
2021/11/26 00:12:13;;;;;;;;;;;;;;;-1.15;100.00;98844.06;1760034;80;20100;-66
2021/11/26 00:17:17;;;;;;;;;;;;;;;-1.15;100.00;98834.85;1727202;81;20156;-65
2021/11/26 00:19:42;;;;;;;;;;;;;;;-1.17;100.00;98832.95;1760241;80;20088;-65
2021/11/26 00:22:08;;;;;;;;;;;;;;;-1.19;100.00;98836.27;1759969;81;20072;-65
2021/11/26 00:24:35;;;;;;;;;;;;;;;-1.22;100.00;98828.26;1760131;81;20417;-63
2021/11/26 00:27:01;;;;;;;;;;;;;;;-1.22;100.00;98826.13;1759868;80;21043;-65
2021/11/26 00:29:28;;;;;;;;;;;;;;;-1.24;100.00;98825.00;1760008;81;20124;-65
2021/11/26 00:31:55;;;;;;;;;;;;;;;-1.22;100.00;98831.40;1760519;81;20085;-64
2021/11/26 00:34:21;;;;;;;;;;;;;;;-1.23;100.00;98825.30;1760431;81;20089;-65
2021/11/26 00:36:48;;;;;;;;;;;;;;;-1.23;100.00;98827.94;1760696;80;20375;-64
2021/11/26 00:39:15;;;;;;;;;;;;;;;-1.23;100.00;98818.72;1760249;81;21122;-65
2021/11/26 00:41:42;;;;;;;;;;;;;;;-1.23;100.00;98814.77;1759940;81;20124;-65
2021/11/26 00:44:09;;;;;;;;;;;;;;;-1.22;100.00;98811.66;1760206;80;20394;-65
2021/11/26 00:46:35;;;;;;;;;;;;;;;-1.24;100.00;98809.20;1759989;80;20089;-65
2021/11/26 00:49:02;;;;;;;;;;;;;;;-1.25;100.00;98806.27;1760818;81;20418;-65
2021/11/26 00:51:30;;;;;;;;;;;;;;;-1.25;100.00;98801.48;1760308;81;21172;-65
2021/11/26 00:53:58;;;;;;;;;;;;;;;-1.21;100.00;98810.13;1760426;81;20421;-65
2021/11/26 00:56:25;;;;;;;;;;;;;;;-1.20;100.00;98803.86;1760254;80;20427;-66
2021/11/26 00:58:52;;;;;;;;;;;;;;;-1.26;100.00;98802.00;1759892;81;20141;-63
2021/11/26 01:01:19;;;;;;;;;;;;;;;-1.28;100.00;98797.94;1756416;81;20169;-63
2021/11/26 01:03:45;;;;;;;;;;;;;;;-1.23;100.00;98796.33;1756505;81;21134;-64
2021/11/26 01:06:14;;;;;;;;;;;;;;;-1.16;100.00;98796.37;1760155;80;20132;-64
2021/11/26 01:08:41;;;;;;;;;;;;;;;-1.16;100.00;98793.73;1760166;80;20442;-64
2021/11/26 01:11:08;;;;;;;;;;;;;;;-1.17;100.00;98786.34;1760836;81;20109;-65
2021/11/26 01:13:34;;;;;;;;;;;;;;;-1.18;100.00;98791.28;1760851;80;20150;-65
2021/11/26 01:16:02;;;;;;;;;;;;;;;-1.16;100.00;98784.52;1758094;81;21775;-64
2021/11/26 01:18:28;;;;;;;;;;;;;;;-1.12;100.00;98786.56;1743960;82;20148;-64
2021/11/26 01:20:55;;;;;;;;;;;;;;;-1.12;100.00;98784.45;1743883;82;20407;-63
2021/11/26 01:23:24;;;;;;;;;;;;;;;-1.13;100.00;98774.91;1743971;82;20388;-63
2021/11/26 01:25:52;;;;;;;;;;;;;;;-1.15;100.00;98776.44;1743878;81;20070;-64
2021/11/26 01:28:19;;;;;;;;;;;;;;;-1.16;100.00;98775.30;1743905;82;21172;-65
2021/11/26 01:30:47;;;;;;;;;;;;;;;-1.13;100.00;98772.27;1743675;82;20109;-65
2021/11/26 01:33:15;;;;;;;;;;;;;;;-1.10;100.00;98775.34;1743913;82;20094;-64
2021/11/26 01:35:42;;;;;;;;;;;;;;;-1.06;100.00;98776.25;1743430;82;20077;-64
2021/11/26 01:38:08;;;;;;;;;;;;;;;-1.06;100.00;98769.16;1744433;82;20418;-64
2021/11/26 01:40:38;;;;;;;;;;;;;;;-1.04;100.00;98757.11;1744301;81;21113;-64
2021/11/26 01:43:07;;;;;;;;;;;;;;;-1.02;100.00;98777.48;1743226;82;20084;-64
2021/11/26 01:45:45;;;;;;;;;;;;;;;-0.99;100.00;98777.89;1743765;82;20415;-64
2021/11/26 01:48:12;;;;;;;;;;;;;;;-0.91;100.00;98775.58;1743991;82;20152;-66
2021/11/26 01:50:39;;;;;;;;;;;;;;;-0.87;100.00;98766.28;1744405;82;20411;-67
2021/11/26 01:53:06;;;;;;;;;;;;;;;-0.89;100.00;98764.34;1744223;82;21076;-67
2021/11/26 01:55:33;;;;;;;;;;;;;;;-0.89;100.00;98768.30;1743800;82;20141;-67
2021/11/26 01:58:00;;;;;;;;;;;;;;;-0.89;100.00;98765.66;1744001;82;20105;-63
2021/11/26 02:00:29;;;;;;;;;;;;;;;-0.89;100.00;98753.30;1743870;82;20093;-64
2021/11/26 02:02:56;;;;;;;;;;;;;;;-0.93;100.00;98750.77;1744324;81;20090;-64
2021/11/26 02:05:22;;;;;;;;;;;;;;;-0.96;100.00;98749.02;1743841;82;21140;-65
2021/11/26 02:07:50;;;;;;;;;;;;;;;-0.94;100.00;98747.81;1743837;81;20077;-63
2021/11/26 02:10:16;;;;;;;;;;;;;;;-0.94;100.00;98721.47;1734577;82;20092;-64
2021/11/26 02:12:43;;;;;;;;;;;;;;;-0.91;100.00;98738.22;1733621;81;20084;-64
2021/11/26 02:15:19;;;;;;;;;;;;;;;-0.84;100.00;98746.11;1733650;83;20124;-65
2021/11/26 02:17:49;;;;;;;;;;;;;;;-0.82;100.00;98737.51;1733429;80;20084;-63
2021/11/26 02:20:18;;;;;;;;;;;;;;;-0.88;100.00;98736.49;1733145;83;20131;-64
2021/11/26 02:22:45;;;;;;;;;;;;;;;-0.91;100.00;98735.58;1733665;83;20096;-64
2021/11/26 02:25:12;;;;;;;;;;;;;;;-0.94;100.00;98735.95;1735132;82;20113;-63
2021/11/26 02:27:39;;;;;;;;;;;;;;;-0.91;100.00;98722.41;1741577;81;20185;-63
2021/11/26 02:30:17;;;;;;;;;;;;;;;-0.96;100.00;98726.12;1741569;81;21849;-64
2021/11/26 02:32:47;;;;;;;;;;;;;;;-1.00;100.00;98729.38;1741464;82;20081;-63
2021/11/26 02:35:13;;;;;;;;;;;;;;;-1.04;100.00;98734.22;1739782;81;20133;-63
2021/11/26 02:37:41;;;;;;;;;;;;;;;-1.05;100.00;98735.72;1741462;81;20837;-63
2021/11/26 02:40:09;;;;;;;;;;;;;;;-1.06;100.00;98724.89;1741604;81;20141;-63
2021/11/26 02:42:36;;;;;;;;;;;;;;;-1.04;100.00;98720.23;1741380;82;21759;-63
2021/11/26 02:45:07;;;;;;;;;;;;;;;-1.00;100.00;98726.74;1731411;83;20126;-64
2021/11/26 02:47:36;;;;;;;;;;;;;;;-1.01;100.00;98721.15;1751767;82;20109;-63
2021/11/26 02:50:05;;;;;;;;;;;;;;;-1.02;100.00;98728.25;1751767;82;20499;-63
2021/11/26 02:52:32;;;;;;;;;;;;;;;-1.06;100.00;98723.06;1751849;82;20093;-65
2021/11/26 02:55:06;;;;;;;;;;;;;;;-1.09;100.00;98713.73;1750050;82;21145;-64
2021/11/26 02:57:33;;;;;;;;;;;;;;;-1.15;100.00;98720.30;1751714;82;20097;-65
2021/11/26 03:00:00;;;;;;;;;;;;;;;-1.16;100.00;98714.73;1751762;82;20468;-65
2021/11/26 03:02:27;;;;;;;;;;;;;;;-1.17;100.00;98721.83;1751863;82;20382;-65
2021/11/26 03:04:54;;;;;;;;;;;;;;;-1.14;100.00;98714.03;1751759;82;20141;-65
2021/11/26 03:07:21;;;;;;;;;;;;;;;-1.13;100.00;98711.70;1751792;81;21113;-67
2021/11/26 03:09:49;;;;;;;;;;;;;;;-1.10;100.00;98709.49;1751843;82;20121;-65
2021/11/26 03:12:16;;;;;;;;;;;;;;;-1.06;100.00;98711.72;1751728;80;20247;-64
2021/11/26 03:14:43;;;;;;;;;;;;;;;-1.04;100.00;98713.66;1730815;82;20144;-64
2021/11/26 03:17:10;;;;;;;;;;;;;;;-1.07;100.00;98703.02;1742676;82;20139;-64
2021/11/26 03:19:37;;;;;;;;;;;;;;;-0.99;100.00;98700.19;1696251;83;21134;-65
2021/11/26 03:22:03;;;;;;;;;;;;;;;-0.96;100.00;98703.73;1726693;82;20433;-65
2021/11/26 03:24:30;;;;;;;;;;;;;;;-1.00;100.00;98699.89;1726449;83;20456;-64
2021/11/26 03:26:57;;;;;;;;;;;;;;;-1.02;100.00;98699.27;1726701;82;20539;-64
2021/11/26 03:29:24;;;;;;;;;;;;;;;-1.08;100.00;98701.38;1726720;82;20409;-64
2021/11/26 03:31:51;;;;;;;;;;;;;;;-1.12;100.00;98712.83;1726589;83;21846;-64
2021/11/26 03:34:17;;;;;;;;;;;;;;;-1.13;100.00;98703.80;1726546;82;20111;-65
2021/11/26 03:36:44;;;;;;;;;;;;;;;-1.12;100.00;98704.92;1726640;81;20416;-63
2021/11/26 03:39:11;;;;;;;;;;;;;;;-1.14;100.00;98704.81;1726604;83;20135;-63
2021/11/26 03:41:37;;;;;;;;;;;;;;;-1.19;100.00;98700.14;1726620;83;20404;-64
2021/11/26 03:44:05;;;;;;;;;;;;;;;-1.22;100.00;98697.91;1726650;83;21180;-66
2021/11/26 03:46:32;;;;;;;;;;;;;;;-1.23;100.00;98706.00;1726113;82;20130;-65
2021/11/26 03:48:59;;;;;;;;;;;;;;;-1.22;100.00;98705.81;1726442;83;20300;-66
2021/11/26 03:51:25;;;;;;;;;;;;;;;-1.21;100.00;98702.16;1726720;82;20091;-66
2021/11/26 03:53:53;;;;;;;;;;;;;;;-1.21;100.00;98689.50;1696379;83;20463;-66
2021/11/26 03:56:20;;;;;;;;;;;;;;;-1.24;100.00;98691.22;1723303;81;20560;-66
2021/11/26 03:58:47;;;;;;;;;;;;;;;-1.25;100.00;98693.53;1726722;82;20157;-64
2021/11/26 04:01:13;;;;;;;;;;;;;;;-1.26;100.00;98697.99;1726999;81;20118;-64
2021/11/26 04:03:41;;;;;;;;;;;;;;;-1.27;100.00;98700.33;1726727;81;20143;-64
2021/11/26 04:06:07;;;;;;;;;;;;;;;-1.26;100.00;98702.45;1726754;82;20399;-64
2021/11/26 04:08:34;;;;;;;;;;;;;;;-1.28;100.00;98701.32;1726597;82;21113;-65
2021/11/26 04:11:03;;;;;;;;;;;;;;;-1.33;100.00;98692.70;1726436;81;20134;-65
2021/11/26 04:13:30;;;;;;;;;;;;;;;-1.39;100.00;98690.87;1726526;81;20091;-65
2021/11/26 04:16:02;;;;;;;;;;;;;;;-1.41;100.00;98694.70;1725456;83;20137;-65
2021/11/26 04:18:26;;;;;;;;;;;;;;;-1.41;100.00;98697.34;1730561;81;20139;-65
2021/11/26 04:20:52;;;;;;;;;;;;;;;-1.40;100.00;98702.39;1735084;81;21128;-65
2021/11/26 04:23:19;;;;;;;;;;;;;;;-1.40;100.00;98702.91;1733604;81;20120;-65
2021/11/26 04:25:46;;;;;;;;;;;;;;;-1.41;100.00;98697.34;1733259;83;20374;-65
2021/11/26 04:28:13;;;;;;;;;;;;;;;-1.47;100.00;98692.85;1733252;81;20497;-65
2021/11/26 04:30:39;;;;;;;;;;;;;;;-1.55;100.00;98699.91;1739342;82;20407;-64
2021/11/26 04:33:08;;;;;;;;;;;;;;;-1.55;100.00;98692.52;1743939;80;20096;-63
2021/11/26 04:35:35;;;;;;;;;;;;;;;-1.56;100.00;98690.40;1744251;81;21286;-64
2021/11/26 04:38:01;;;;;;;;;;;;;;;-1.55;100.00;98678.05;1744403;81;20113;-63
2021/11/26 04:40:29;;;;;;;;;;;;;;;-1.52;100.00;98688.17;1744204;82;20109;-64
2021/11/26 04:42:55;;;;;;;;;;;;;;;-1.54;100.00;98685.76;1744143;82;20422;-64
2021/11/26 04:45:22;;;;;;;;;;;;;;;-1.51;100.00;98684.04;1743783;81;21110;-63
2021/11/26 04:47:49;;;;;;;;;;;;;;;-1.45;100.00;98688.20;1743836;82;20447;-65
2021/11/26 04:50:16;;;;;;;;;;;;;;;-1.38;100.00;98681.14;1743908;82;20397;-63
2021/11/26 04:52:43;;;;;;;;;;;;;;;-1.32;100.00;98678.55;1743614;81;20423;-64
2021/11/26 04:55:10;;;;;;;;;;;;;;;-1.24;100.00;98678.86;1743953;82;20094;-63
2021/11/26 04:57:38;;;;;;;;;;;;;;;-1.18;100.00;98673.30;1743885;81;21112;-63
2021/11/26 05:00:06;;;;;;;;;;;;;;;-1.13;100.00;98680.09;1744284;82;20093;-63
2021/11/26 05:02:34;;;;;;;;;;;;;;;-1.06;100.00;98685.38;1744359;82;20081;-64
2021/11/26 05:05:01;;;;;;;;;;;;;;;-1.01;100.00;98687.71;1740061;82;20080;-63
2021/11/26 05:07:27;;;;;;;;;;;;;;;-0.98;100.00;98683.86;1729044;82;20161;-64
2021/11/26 05:09:59;;;;;;;;;;;;;;;-0.95;100.00;98677.70;1743538;82;20082;-63
2021/11/26 05:12:31;;;;;;;;;;;;;;;-0.93;100.00;98684.08;1743712;81;20077;-66
2021/11/26 05:14:54;;;;;;;;;;;;;;;-0.89;100.00;98694.53;1741935;82;20097;-64
2021/11/26 05:17:20;;;;;;;;;;;;;;;-0.84;100.00;98682.07;1758860;81;20401;-63
2021/11/26 05:19:48;;;;;;;;;;;;;;;-0.80;100.00;98683.30;1757848;81;20173;-63
2021/11/26 05:22:15;;;;;;;;;;;;;;;-0.80;100.00;98683.30;1757714;80;21038;-63
2021/11/26 05:24:43;;;;;;;;;;;;;;;-0.79;100.00;98690.18;1757349;81;20066;-63
2021/11/26 05:27:09;;;;;;;;;;;;;;;-0.79;100.00;98680.45;1757270;81;20110;-65
2021/11/26 05:29:37;;;;;;;;;;;;;;;-0.77;100.00;98677.62;1757250;80;20515;-64
2021/11/26 05:32:04;;;;;;;;;;;;;;;-0.75;100.00;98680.87;1750679;81;20176;-63
2021/11/26 05:34:31;;;;;;;;;;;;;;;-0.75;100.00;98667.69;1749340;81;21086;-63
2021/11/26 05:36:58;;;;;;;;;;;;;;;-0.73;100.00;98673.06;1755245;80;20083;-62
2021/11/26 05:39:24;;;;;;;;;;;;;;;-0.72;100.00;98678.62;1757326;81;20420;-62
2021/11/26 05:41:51;;;;;;;;;;;;;;;-0.71;100.00;98676.80;1757375;80;20423;-64
2021/11/26 05:44:18;;;;;;;;;;;;;;;-0.71;100.00;98692.13;1757517;81;20467;-65
2021/11/26 05:46:46;;;;;;;;;;;;;;;-0.68;100.00;98685.13;1746751;80;21109;-66
2021/11/26 05:49:12;;;;;;;;;;;;;;;-0.66;100.00;98682.30;1741735;81;20465;-66
2021/11/26 05:51:39;;;;;;;;;;;;;;;-0.64;100.00;98682.88;1736527;81;20152;-65
2021/11/26 05:54:05;;;;;;;;;;;;;;;-0.62;100.00;98678.73;1782609;80;20088;-65
2021/11/26 05:56:32;;;;;;;;;;;;;;;-0.57;100.00;98694.24;1781673;79;20143;-66
2021/11/26 05:58:59;;;;;;;;;;;;;;;-0.55;100.00;98683.51;1781860;80;20990;-66
2021/11/26 06:01:27;;;;;;;;;;;;;;;-0.51;100.00;98692.64;1767626;80;20110;-66
2021/11/26 06:03:54;;;;;;;;;;;;;;;-0.48;100.00;98693.55;1758263;80;20097;-66
2021/11/26 06:06:21;;;;;;;;;;;;;;;-0.48;100.00;98689.59;1744768;80;20078;-65
2021/11/26 06:08:47;;;;;;;;;;;;;;;-0.49;100.00;98689.27;1780290;80;20119;-66
2021/11/26 06:11:14;;;;;;;;;;;;;;;-0.46;100.00;98684.42;1782087;79;21098;-66
2021/11/26 06:13:42;;;;;;;;;;;;;;;-0.44;100.00;98686.86;1781339;79;20088;-66
2021/11/26 06:16:08;;;;;;;;;;;;;;;-0.42;100.00;98682.69;1774631;80;20099;-66
2021/11/26 06:18:37;;;;;;;;;;;;;;;-0.42;100.00;98682.17;1755231;79;20080;-66
2021/11/26 06:21:04;;;;;;;;;;;;;;;-0.37;100.00;98688.96;1742740;81;20079;-66
2021/11/26 06:23:31;;;;;;;;;;;;;;;-0.35;100.00;98688.77;1751775;82;21156;-66
2021/11/26 06:25:58;;;;;;;;;;;;;;;-0.32;100.00;98685.72;1751751;82;20154;-69
2021/11/26 06:28:25;;;;;;;;;;;;;;;-0.29;100.00;98698.00;1751305;81;20154;-67
2021/11/26 06:30:52;;;;;;;;;;;;;;;-0.26;100.00;98699.42;1745647;81;20664;-67
2021/11/26 06:33:19;;;;;;;;;;;;;;;-0.22;100.00;98706.72;1751774;81;20398;-67
2021/11/26 06:35:46;;;;;;;;;;;;;;;-0.19;100.00;98708.65;1751182;81;21875;-67
2021/11/26 06:38:12;;;;;;;;;;;;;;;-0.15;100.00;98719.08;1733934;82;20161;-67
2021/11/26 06:40:39;;;;;;;;;;;;;;;-0.12;100.00;98719.49;1752032;82;20095;-65
2021/11/26 06:43:07;;;;;;;;;;;;;;;-0.06;100.00;98721.30;1746262;81;20439;-67
2021/11/26 06:45:34;;;;;;;;;;;;;;;-0.04;100.00;98717.14;1749390;82;20420;-66
2021/11/26 06:48:00;;;;;;;;;;;;;;;0.01;100.00;98712.58;1745070;80;21717;-65
2021/11/26 06:50:28;;;;;;;;;;;;;;;0.07;100.00;98704.63;1743967;81;20071;-64
2021/11/26 06:52:56;;;;;;;;;;;;;;;0.09;100.00;98699.95;1744464;82;20095;-63
2021/11/26 06:55:23;;;;;;;;;;;;;;;0.11;100.00;98699.77;1744277;82;20503;-63
2021/11/26 06:57:49;;;;;;;;;;;;;;;0.13;100.00;98693.77;1744569;81;20396;-64
2021/11/26 07:00:17;;;;;;;;;;;;;;;0.18;100.00;98692.13;1744451;82;21753;-64
2021/11/26 07:02:46;;;;;;;;;;;;;;;0.24;100.00;98698.39;1744276;80;20079;-64
2021/11/26 07:05:12;;;;;;;;;;;;;;;0.29;100.00;98699.09;1744011;81;20104;-66
2021/11/26 07:07:39;;;;;;;;;;;;;;;0.35;100.00;98698.28;1747333;80;20398;-67
2021/11/26 07:10:09;;;;;;;;;;;;;;;0.38;100.00;98707.09;1750316;82;20416;-64
2021/11/26 07:12:36;;;;;;;;;;;;;;;0.40;100.00;98703.22;1750412;80;21084;-66
2021/11/26 07:15:04;;;;;;;;;;;;;;;0.40;100.00;98696.63;1739152;82;20141;-66
2021/11/26 07:17:31;;;;;;;;;;;;;;;0.42;100.00;98692.47;1752124;82;20472;-66
2021/11/26 07:19:58;;;;;;;;;;;;;;;0.40;100.00;98687.90;1751898;82;20110;-64
2021/11/26 07:22:25;;;;;;;;;;;;;;;0.40;100.00;98686.58;1730895;81;20487;-66
2021/11/26 07:24:52;;;;;;;;;;;;;;;0.40;100.00;98686.06;1747758;82;21149;-67
2021/11/26 07:27:20;;;;;;;;;;;;;;;0.42;100.00;98677.94;1751955;81;20459;-63
2021/11/26 07:29:47;;;;;;;;;;;;;;;0.42;100.00;98666.87;1752017;82;20099;-67
2021/11/26 07:39:08;;;;;;;;;;;;;;;0.53;100.00;98670.67;1683972;84;20439;-67
2021/11/26 07:41:34;;;;;;;;;;;;;;;0.58;100.00;98632.55;1682471;85;20226;-66
2021/11/26 07:44:01;;;;;;;;;;;;;;;0.67;100.00;98621.24;1683571;85;20156;-67
2021/11/26 07:46:28;;;;;;;;;;;;;;;0.77;100.00;98632.66;1659586;85;20179;-69
2021/11/26 07:48:55;;;;;;;;;;;;;;;0.88;100.00;98653.10;1698535;84;20081;-67
2021/11/26 07:51:23;;;;;;;;;;;;;;;0.97;100.00;98703.36;1711939;84;21139;-68
2021/11/26 07:53:50;;;;;;;;;;;;;;;1.17;100.00;98689.22;1683689;85;20107;-67
2021/11/26 07:56:16;;;;;;;;;;;;;;;1.21;100.00;98705.76;1683747;85;20149;-68
2021/11/26 07:58:43;;;;;;;;;;;;;;;1.36;100.00;98697.52;1684078;85;20194;-68
2021/11/26 08:01:10;;;;;;;;;;;;;;;1.54;100.00;98700.73;1683815;85;20148;-66
2021/11/26 08:03:38;;;;;;;;;;;;;;;1.63;100.00;98698.12;1683495;85;21136;-68
2021/11/26 08:06:05;;;;;;;;;;;;;;;1.68;100.00;98696.95;1683817;85;20196;-68
2021/11/26 08:08:32;;;;;;;;;;;;;;;1.72;100.00;98686.76;1682670;84;20159;-66
2021/11/26 08:11:00;;;;;;;;;;;;;;;1.71;100.00;98689.92;1690329;85;20215;-67
2021/11/26 08:13:27;;;;;;;;;;;;;;;1.70;100.00;98689.61;1690306;83;20079;-67
2021/11/26 08:15:54;;;;;;;;;;;;;;;1.85;100.00;98703.02;1746154;81;21054;-67
2021/11/26 08:18:22;;;;;;;;;;;;;;;2.11;100.00;98701.44;1746398;81;20101;-68
2021/11/26 08:20:49;;;;;;;;;;;;;;;2.21;100.00;98684.25;1726593;82;20081;-67
2021/11/26 08:23:17;;;;;;;;;;;;;;;2.31;100.00;98685.34;1726555;83;20137;-68
2021/11/26 08:25:44;;;;;;;;;;;;;;;2.42;100.00;98684.30;1726865;82;20382;-68
2021/11/26 08:28:12;;;;;;;;;;;;;;;2.48;100.00;98678.93;1726707;83;21141;-68
2021/11/26 08:30:38;;;;;;;;;;;;;;;2.53;100.00;98676.94;1726502;83;20112;-67
2021/11/26 08:33:07;;;;;;;;;;;;;;;2.54;100.00;98675.90;1726740;83;21065;-68
2021/11/26 08:35:34;;;;;;;;;;;;;;;2.75;100.00;98660.85;1726782;82;20157;-69
2021/11/26 08:38:01;;;;;;;;;;;;;;;2.91;100.00;98662.57;1726257;83;20148;-69
2021/11/26 08:40:28;;;;;;;;;;;;;;;2.98;100.00;98664.61;1726782;83;22419;-68
2021/11/26 08:42:55;;;;;;;;;;;;;;;3.08;100.00;98669.37;1726570;81;20391;-69
2021/11/26 08:45:22;;;;;;;;;;;;;;;3.19;100.00;98672.58;1725950;83;20105;-68
2021/11/26 08:47:49;;;;;;;;;;;;;;;3.20;100.00;98663.05;1726769;82;20395;-68
2021/11/26 08:50:18;;;;;;;;;;;;;;;3.15;100.00;98671.41;1726276;83;20195;-68
2021/11/26 08:52:46;;;;;;;;;;;;;;;3.22;100.00;98666.28;1726675;81;21159;-66
2021/11/26 08:55:16;;;;;;;;;;;;;;;3.14;100.00;98670.60;1726698;81;20129;-67
2021/11/26 08:57:48;;;;;;;;;;;;;;;3.21;100.00;98659.37;1726461;82;20085;-67
2021/11/26 09:00:12;;;;;;;;;;;;;;;3.14;100.00;98652.04;1725589;81;20180;-67
2021/11/26 09:02:38;;;;;;;;;;;;;;;3.12;100.00;98640.84;1726629;83;20093;-67
2021/11/26 09:05:06;;;;;;;;;;;;;;;3.26;100.00;98639.30;1726612;83;21116;-67
2021/11/26 09:07:33;;;;;;;;;;;;;;;3.31;100.00;98623.54;1695863;83;20160;-66
2021/11/26 09:10:00;;;;;;;;;;;;;;;3.13;100.00;98630.52;1723348;81;20104;-66
2021/11/26 09:12:30;;;;;;;;;;;;;;;3.12;100.00;98632.09;1719178;81;20481;-68
2021/11/26 09:14:56;;;;;;;;;;;;;;;3.18;100.00;98639.13;1744347;81;20463;-68
2021/11/26 09:17:24;;;;;;;;;;;;;;;3.50;100.00;98641.47;1732337;81;21089;-68
2021/11/26 09:19:54;;;;;;;;;;;;;;;3.74;100.00;98621.86;1735724;81;20131;-68
2021/11/26 09:22:21;;;;;;;;;;;;;;;3.99;100.00;98621.62;1721071;82;20147;-67
2021/11/26 09:24:47;;;;;;;;;;;;;;;4.17;100.00;98611.35;1721723;82;20123;-68
2021/11/26 09:27:14;;;;;;;;;;;;;;;4.17;100.00;98616.66;1720880;82;20119;-68
2021/11/26 09:29:45;;;;;;;;;;;;;;;4.06;100.00;98602.35;1726001;82;21098;-67
2021/11/26 09:32:11;;;;;;;;;;;;;;;4.41;100.00;98595.32;1739300;82;21095;-68
2021/11/26 09:34:38;;;;;;;;;;;;;;;4.82;100.00;98607.50;1751879;82;20096;-68
2021/11/26 09:37:05;;;;;;;;;;;;;;;4.98;100.00;98601.14;1752109;82;20101;-68
2021/11/26 09:39:32;;;;;;;;;;;;;;;4.63;100.00;98591.48;1752466;80;20085;-67
2021/11/26 09:41:59;;;;;;;;;;;;;;;4.45;100.00;98585.31;1752052;80;21020;-67
2021/11/26 09:44:31;;;;;;;;;;;;;;;4.40;100.00;98575.13;1752319;81;20109;-67
2021/11/26 09:46:56;;;;;;;;;;;;;;;4.44;100.00;98577.59;1761121;80;20419;-67
2021/11/26 09:49:23;;;;;;;;;;;;;;;4.23;100.00;98578.52;1787516;80;20101;-68
2021/11/26 09:51:50;;;;;;;;;;;;;;;4.12;100.00;98561.32;1772403;80;20109;-67
2021/11/26 09:54:17;;;;;;;;;;;;;;;4.14;100.00;98557.88;1763841;80;21087;-68
2021/11/26 09:56:43;;;;;;;;;;;;;;;4.07;100.00;98554.86;1787379;80;20109;-68
2021/11/26 09:59:10;;;;;;;;;;;;;;;4.07;100.00;98556.71;1787244;80;20086;-68
2021/11/26 10:01:38;;;;;;;;;;;;;;;4.35;100.00;98557.76;1782023;79;20149;-68
2021/11/26 10:04:05;;;;;;;;;;;;;;;4.72;100.00;98551.51;1752825;80;20179;-67
2021/11/26 10:06:44;;;;;;;;;;;;;;;5.01;100.00;98550.92;1709342;81;21224;-68
2021/11/26 10:09:17;;;;;;;;;;;;;;;5.31;100.00;98529.82;1736908;81;20176;-67
2021/11/26 10:11:52;;;;;;;;;;;;;;;4.94;100.00;98535.12;1778155;80;20452;-68
2021/11/26 10:14:33;;;;;;;;;;;;;;;5.01;100.00;98523.53;1773789;80;20116;-67
2021/11/26 10:17:10;;;;;;;;;;;;;;;5.11;100.00;98526.34;1773940;80;20089;-67
2021/11/26 10:19:37;;;;;;;;;;;;;;;5.11;100.00;98523.68;1769977;79;21167;-68
2021/11/26 10:22:14;;;;;;;;;;;;;;;5.30;100.00;98525.03;1765420;80;20380;-69
2021/11/26 10:24:41;;;;;;;;;;;;;;;5.33;100.00;98515.22;1761241;80;20105;-68
2021/11/26 10:27:08;;;;;;;;;;;;;;;5.37;100.00;98524.33;1765569;81;20125;-67
2021/11/26 10:29:36;;;;;;;;;;;;;;;5.46;100.00;98527.90;1765774;81;20169;-68
2021/11/26 10:32:11;;;;;;;;;;;;;;;5.36;100.00;98542.69;1765624;81;21121;-67
2021/11/26 10:34:39;;;;;;;;;;;;;;;5.57;100.00;98550.95;1765776;81;20647;-67
2021/11/26 10:37:08;;;;;;;;;;;;;;;5.85;100.00;98551.30;1765524;80;20414;-68
2021/11/26 10:39:36;;;;;;;;;;;;;;;6.00;100.00;98542.23;1765073;80;20085;-68
2021/11/26 10:42:04;;;;;;;;;;;;;;;6.03;100.00;98527.60;1757566;81;20165;-67
2021/11/26 10:44:50;;;;;;;;;;;;;;;5.76;100.00;98512.87;1752928;81;21825;-67
2021/11/26 10:47:20;;;;;;;;;;;;;;;5.70;100.00;98498.67;1724800;82;20095;-67
2021/11/26 10:50:15;;;;;;;;;;;;;;;5.69;100.00;98486.95;1750482;82;20110;-67
2021/11/26 10:58:15;;;;;;;;;;;;;;;5.96;100.00;98512.34;1752021;81;21534;-65
2021/11/26 11:01:02;;;;;;;;;;;;;;;5.93;100.00;98509.61;1751913;80;20099;-67
2021/11/26 11:04:03;;;;;;;;;;;;;;;5.96;100.00;98515.80;1717820;83;20176;-67
2021/11/26 11:07:23;;;;;;;;;;;;;;;5.78;100.00;98501.42;1666627;86;20182;-67
2021/11/26 11:09:56;;;;;;;;;;;;;;;5.78;100.00;98496.92;1592074;90;20193;-66
2021/11/26 11:12:33;;;;;;;;;;;;;;;5.68;100.00;98488.78;1571383;90;21125;-67
2021/11/26 11:15:11;;;;;;;;;;;;;;;5.59;100.00;98489.77;1530239;92;20122;-65
2021/11/26 11:21:09;;;;;;;;;;;;;;;5.53;100.00;98484.08;1429737;98;20283;-68
2021/11/26 11:23:36;;;;;;;;;;;;;;;5.57;100.00;98488.40;1413461;100;20205;-68
2021/11/26 11:30:43;;;;;;;;;;;;;;;5.82;100.00;98473.78;1384879;103;20268;-69
2021/11/26 11:33:54;;;;;;;;;;;;;;;5.65;100.00;98490.63;1393216;101;20145;-69
2021/11/26 11:36:39;;;;;;;;;;;;;;;5.63;100.00;98485.27;1373320;103;20240;-69
2021/11/26 11:39:28;;;;;;;;;;;;;;;5.63;100.00;98483.94;1366048;104;20187;-68
2021/11/26 11:42:05;;;;;;;;;;;;;;;5.59;100.00;98476.98;1354971;104;22265;-67
2021/11/26 11:44:59;;;;;;;;;;;;;;;5.53;100.00;98462.78;1360477;104;20167;-67
2021/11/26 11:47:28;;;;;;;;;;;;;;;5.40;100.00;98464.49;1362492;104;20555;-67
2021/11/26 11:50:10;;;;;;;;;;;;;;;5.42;100.00;98461.59;1368471;103;20164;-67
2021/11/26 11:52:45;;;;;;;;;;;;;;;5.43;100.00;98469.84;1408239;99;20173;-67
2021/11/26 11:55:20;;;;;;;;;;;;;;;5.41;100.00;98460.77;1430737;98;21204;-66
2021/11/26 12:05:25;;;;;;;;;;;;;;;5.33;100.00;98469.98;1547276;89;20224;-69
2021/11/26 12:08:09;;;;;;;;;;;;;;;5.28;100.00;98462.47;1589959;88;20452;-68
2021/11/26 12:10:46;;;;;;;;;;;;;;;5.31;100.00;98454.78;1591189;87;20133;-68
2021/11/26 12:13:19;;;;;;;;;;;;;;;5.28;100.00;98461.94;1639356;86;20137;-70
2021/11/26 12:15:49;;;;;;;;;;;;;;;5.18;100.00;98455.16;1638870;87;20122;-69
2021/11/26 12:18:16;;;;;;;;;;;;;;;5.30;100.00;98458.51;1638138;86;20903;-67
2021/11/26 12:20:45;;;;;;;;;;;;;;;5.35;100.00;98449.80;1647874;85;20329;-70
2021/11/26 12:23:34;;;;;;;;;;;;;;;5.41;100.00;98458.64;1663618;85;20912;-68
2021/11/26 12:26:16;;;;;;;;;;;;;;;5.45;100.00;98452.58;1662523;86;20110;-68
2021/11/26 12:28:49;;;;;;;;;;;;;;;5.42;100.00;98443.77;1662291;86;20109;-68
2021/11/26 12:31:15;;;;;;;;;;;;;;;5.27;100.00;98443.05;1663627;86;20818;-67
2021/11/26 12:33:42;;;;;;;;;;;;;;;5.25;100.00;98443.02;1641385;86;20183;-69
2021/11/26 12:36:14;;;;;;;;;;;;;;;5.14;100.00;98451.36;1686120;83;21139;-69
2021/11/26 12:38:51;;;;;;;;;;;;;;;5.24;100.00;98444.88;1724197;83;20100;-68
2021/11/26 12:41:32;;;;;;;;;;;;;;;5.29;100.00;98432.97;1702646;83;20233;-68
2021/11/26 12:43:59;;;;;;;;;;;;;;;5.31;100.00;98424.19;1702602;83;20099;-68
2021/11/26 12:46:34;;;;;;;;;;;;;;;5.28;100.00;98424.69;1702199;83;20152;-68
2021/11/26 12:51:52;;;;;;;;;;;;;;;5.14;100.00;98412.80;1743653;82;20153;-69
2021/11/26 12:54:38;;;;;;;;;;;;;;;5.09;100.00;98396.77;1725860;82;20428;-68
2021/11/26 12:57:09;;;;;;;;;;;;;;;5.08;100.00;98396.50;1725050;81;20162;-69
2021/11/26 12:59:43;;;;;;;;;;;;;;;5.00;100.00;98391.09;1737066;82;20110;-68
2021/11/26 13:02:11;;;;;;;;;;;;;;;4.98;100.00;98392.38;1736532;82;21118;-67
2021/11/26 13:04:48;;;;;;;;;;;;;;;4.98;100.00;98391.85;1710208;82;20218;-68
2021/11/26 13:07:15;;;;;;;;;;;;;;;4.99;100.00;98382.81;1710898;82;20171;-67
2021/11/26 13:09:47;;;;;;;;;;;;;;;4.87;100.00;98379.45;1732296;82;20189;-67
2021/11/26 13:12:15;;;;;;;;;;;;;;;4.81;100.00;98369.28;1714611;81;20122;-66
2021/11/26 13:14:54;;;;;;;;;;;;;;;4.73;100.00;98375.03;1711174;84;21090;-67
2021/11/26 13:17:26;;;;;;;;;;;;;;;4.64;100.00;98370.64;1721516;83;20107;-67
2021/11/26 13:20:08;;;;;;;;;;;;;;;4.58;100.00;98356.19;1707374;84;20187;-67
2021/11/26 13:22:45;;;;;;;;;;;;;;;4.56;100.00;98368.41;1798902;79;20310;-66
2021/11/26 13:25:13;;;;;;;;;;;;;;;4.54;100.00;98365.71;1780140;80;21052;-67